Terminal Aerodrome Forecast
Issued by NWS

Home | Current Version | Previous Version | Text Only | Print | Product List | Glossary On
Versions: 1 2 3 4 5 6 7 8 9 10 11 12 13 14 15 16 17 18 19 20 21 22 23 24 25 26 27 28 29 30
127
FTPQ31 PGUM 162327
TAFGUM
TAF

TAF
PGSN 162327Z 1700/1724 05014G22KT P6SM VCSH SCT012 BKN040 BKN050
      TEMPO 1700/1704 3SM SHRA BKN015 OVC040
     FM170600 05018G26KT P6SM VCSH SCT015 SCT035 BKN060
      TEMPO 1706/1710 3SM +SHRA BKN015 OVC030
     FM171000 05020G30KT P6SM VCSH SCT015 BKN035 OVC050
      TEMPO 1710/1714 2SM +SHRA BKN015 OVC025=

USA.gov is the U.S. government's official web portal to all federal, state and local government web resources and services.